Latest Weather Observations for Scottsdale

IDT60801

Issued at 8:51 pm EST Wednesday 30 September 2020 (issued every 10 minutes, with the page automatically refreshed every 10 minutes)

About weather observations | Map of weather stations | Latest weather observations for TAS | Other Formats
Station Details ID: 091219 Name: SCOTTSDALE (WEST MINSTONE ROAD) Lat: -41.17 Lon: 147.49 Height: 197.5 m
Data from the previous 72 hours. | See also: Recent months at Scottsdale
Date/Time
EST
Temp
°C
App
Temp
°C
Dew
Point
°C
Rel
Hum
%
Delta-T
°C
Wind Press
QNH
hPa
Press
MSL
hPa
Rain since
9am
mm
Dir  Spd
km/h
Gust
km/h
Spd
kts
Gust
kts
30/08:30pm 10.8 6.3 10.2 96 0.3 N 24 39 13 21 1004.0 - -
30/08:00pm 10.8 6.3 10.2 96 0.3 N 24 35 13 19 1004.2 - -
30/07:30pm 10.8 7.1 10.2 96 0.3 N 20 28 11 15 1004.3 - -
30/07:00pm 10.7 6.2 10.1 96 0.3 N 24 35 13 19 1004.4 - -
30/06:30pm 10.6 6.9 10.0 96 0.3 N 20 30 11 16 1004.6 - -
30/06:00pm 10.4 7.1 9.6 95 0.4 NNE 17 20 9 11 1005.0 1005.3 -
30/05:30pm 10.4 8.6 9.6 95 0.4 E 9 11 5 6 1005.4 - -
30/05:00pm 10.5 9.1 9.7 95 0.4 ESE 7 9 4 5 1005.5 - -
30/04:30pm 10.5 8.8 9.7 95 0.4 NE 9 13 5 7 1005.6 - -
30/04:00pm 10.5 7.6 9.7 95 0.4 N 15 24 8 13 1006.0 - -
30/03:30pm 10.4 7.5 9.6 95 0.4 N 15 24 8 13 1006.4 - -
30/03:00pm 10.4 5.0 9.5 94 0.5 N 28 37 15 20 1007.0 1007.3 1.0
30/02:30pm 11.1 8.2 9.7 91 0.7 N 15 19 8 10 1007.5 - -
30/02:00pm 11.6 11.5 9.5 87 1.1 CALM 0 0 0 0 1007.9 - -
30/01:30pm 11.8 11.3 9.2 84 1.3 W 2 6 1 3 1008.2 - -
30/01:00pm 11.8 11.7 9.5 86 1.2 CALM 0 0 0 0 1008.5 - -
30/12:30pm 11.7 10.3 9.6 87 1.1 NNE 7 9 4 5 1009.1 - -
30/12:00pm 11.8 10.5 9.9 88 1.0 N 7 9 4 5 1009.7 1010.0 -
30/11:30am 11.9 10.6 9.8 87 1.1 NW 7 13 4 7 1010.1 - -
30/11:00am 12.6 10.6 10.1 85 1.3 NW 11 17 6 9 1010.7 - -
30/10:30am 13.5 11.3 10.9 84 1.4 NNW 13 19 7 10 1011.1 - -
30/10:00am 13.3 10.9 10.1 81 1.7 NW 13 19 7 10 1011.5 - -
30/09:30am 13.5 12.3 11.6 88 1.0 N 9 15 5 8 1012.0 - -
30/09:00am 12.8 11.3 10.7 87 1.1 NNE 9 13 5 7 1012.2 1012.5 0.0
30/08:30am 12.2 10.6 10.3 88 1.0 ENE 9 13 5 7 1012.5 - -
30/08:00am 11.8 10.1 9.9 88 1.0 ESE 9 11 5 6 1012.8 - -
30/07:30am 11.3 9.5 9.6 89 0.9 E 9 13 5 7 1012.9 - -
30/07:00am 10.9 9.0 9.2 89 0.9 SE 9 15 5 8 1012.8 - -
30/06:30am 10.6 7.9 8.9 89 0.8 SSE 13 17 7 9 1012.8 - -
30/06:00am 10.2 7.0 8.6 90 0.8 SE 15 17 8 9 1012.8 1013.0 -
30/05:30am 9.7 6.4 8.0 89 0.8 SSE 15 17 8 9 1013.0 - -
30/05:00am 9.7 6.4 8.0 89 0.8 SE 15 17 8 9 1013.4 - -
30/04:30am 9.2 6.5 7.5 89 0.8 SE 11 13 6 7 1013.8 - -
30/04:00am 8.5 5.3 7.0 90 0.7 SSE 13 15 7 8 1014.1 - -
30/03:30am 8.5 5.7 7.0 90 0.7 SSE 11 13 6 7 1014.5 - -
30/03:00am 8.5 5.7 7.0 90 0.7 SSE 11 15 6 8 1014.8 1015.1 -
30/02:30am 8.6 5.8 7.1 90 0.7 SE 11 13 6 7 1015.3 - -
30/02:00am 8.9 5.8 7.4 90 0.7 SSE 13 17 7 9 1015.7 - -
30/01:30am 8.5 5.0 7.1 91 0.7 SE 15 15 8 8 1016.5 - -
30/01:00am 8.3 5.1 6.8 90 0.7 SE 13 15 7 8 1017.0 - -
30/12:30am 8.1 4.8 6.6 90 0.7 ESE 13 13 7 7 1017.5 - -
30/12:00am 8.5 5.4 7.1 91 0.7 ESE 13 15 7 8 1017.8 1018.2 -
 
Date/Time
EST
Temp
°C
App
Temp
°C
Dew
Point
°C
Rel
Hum
%
Delta-T
°C
Wind Press
QNH
hPa
Press
MSL
hPa
Rain since
9am
mm
Dir  Spd
km/h
Gust
km/h
Spd
kts
Gust
kts
29/11:30pm 8.3 5.1 6.9 91 0.7 ESE 13 15 7 8 1018.3 - -
29/11:00pm 7.6 4.6 6.2 91 0.6 ESE 11 13 6 7 1018.6 - -
29/10:30pm 7.8 5.2 6.3 90 0.7 ESE 9 13 5 7 1018.9 - -
29/10:00pm 8.3 5.1 6.8 90 0.7 ESE 13 13 7 7 1019.1 - -
29/09:30pm 8.9 6.2 7.4 90 0.7 ESE 11 15 6 8 1019.5 - -
29/09:00pm 8.1 4.8 6.6 90 0.7 ESE 13 15 7 8 1019.8 1020.1 -
29/08:30pm 8.5 5.2 6.5 87 0.9 E 13 15 7 8 1020.1 - -
29/08:00pm 8.3 5.8 6.4 88 0.9 E 9 11 5 6 1020.3 - -
29/07:30pm 8.3 7.5 6.4 88 0.9 CALM 0 0 0 0 1020.3 - -
29/07:00pm 9.0 8.4 7.3 89 0.8 CALM 0 0 0 0 1020.3 - -
29/06:30pm 8.4 7.6 6.4 87 0.9 CALM 0 6 0 3 1020.0 - -
29/06:00pm 9.0 6.8 6.3 83 1.3 NE 7 9 4 5 1019.8 1020.1 -
29/05:30pm 9.7 7.7 7.0 83 1.3 NNE 7 9 4 5 1020.0 - -
29/05:00pm 10.8 8.0 6.9 77 1.9 NNE 11 15 6 8 1020.2 - -
29/04:30pm 11.0 7.1 6.9 76 2.0 N 17 22 9 12 1020.4 - -
29/04:00pm 11.6 7.4 7.3 75 2.1 N 19 24 10 13 1020.4 - -
29/03:30pm 11.8 6.9 6.9 72 2.4 N 22 28 12 15 1020.6 - -
29/03:00pm 12.8 8.0 7.3 69 2.7 N 22 30 12 16 1021.4 1021.7 -
29/02:30pm 13.0 9.2 7.7 70 2.6 NNW 17 24 9 13 1021.6 - -
29/02:00pm 12.9 9.9 7.8 71 2.5 NNW 13 19 7 10 1021.8 - -
29/01:30pm 13.4 9.8 8.3 71 2.6 N 17 24 9 13 1022.2 - -
29/01:00pm 12.9 8.4 6.3 64 3.2 N 19 30 10 16 1022.8 - -
29/12:30pm 14.2 10.3 9.6 74 2.4 N 20 24 11 13 1023.5 - -
29/12:00pm 13.5 9.0 7.1 65 3.1 N 20 28 11 15 1024.1 1024.4 -
29/11:30am 12.2 8.0 5.8 65 3.0 N 17 26 9 14 1024.3 - -
29/11:00am 12.2 8.6 6.9 70 2.6 N 15 22 8 12 1024.7 - -
29/10:30am 11.3 8.5 6.8 74 2.2 N 11 20 6 11 1025.2 - -
29/10:00am 10.9 8.5 6.8 76 2.0 N 9 13 5 7 1025.4 - -
29/09:30am 10.8 8.3 6.7 76 2.0 N 9 15 5 8 1025.6 - -
29/09:00am 10.9 8.8 6.6 75 2.0 ENE 7 13 4 7 1025.8 1026.1 0.0
29/08:30am 10.9 8.8 6.6 75 2.0 E 7 11 4 6 1025.9 - -
29/08:00am 10.0 7.8 6.3 78 1.7 NE 7 9 4 5 1026.1 - -
29/07:30am 8.2 6.6 6.2 87 0.9 WSW 4 6 2 3 1026.0 - -
29/07:00am 7.9 5.7 6.0 88 0.9 ESE 7 9 4 5 1025.4 - -
29/06:30am 6.2 2.9 4.7 90 0.7 SE 11 13 6 7 1025.1 - -
29/06:00am 5.1 1.3 3.9 92 0.5 SE 13 13 7 7 1025.0 1025.3 -
29/05:30am 5.0 1.2 3.8 92 0.5 SE 13 15 7 8 1024.7 - -
29/05:00am 4.4 1.2 2.9 90 0.6 SSE 9 13 5 7 1024.9 - -
29/04:30am 5.3 1.5 3.8 90 0.6 SSE 13 13 7 7 1024.9 - -
29/04:00am 6.0 2.7 4.6 91 0.6 SE 11 11 6 6 1024.9 - -
29/03:30am 4.5 1.3 3.0 90 0.6 SE 9 9 5 5 1025.0 - -
29/03:00am 5.0 1.4 3.2 88 0.7 SE 11 11 6 6 1025.1 1025.4 -
29/02:30am 6.1 3.1 4.1 87 0.9 SE 9 11 5 6 1025.5 - -
29/02:00am 6.8 3.2 5.0 88 0.8 SE 13 13 7 7 1025.7 - -
29/01:30am 6.3 2.7 4.8 90 0.7 SSE 13 15 7 8 1025.9 - -
29/01:00am 5.2 1.7 3.7 90 0.6 SSE 11 13 6 7 1026.0 - -
29/12:30am 4.9 1.0 3.4 90 0.6 SE 13 13 7 7 1026.1 - -
29/12:00am 4.8 1.3 3.5 91 0.5 SSE 11 13 6 7 1026.2 1026.6 -
 
Date/Time
EST
Temp
°C
App
Temp
°C
Dew
Point
°C
Rel
Hum
%
Delta-T
°C
Wind Press
QNH
hPa
Press
MSL
hPa
Rain since
9am
mm
Dir  Spd
km/h
Gust
km/h
Spd
kts
Gust
kts
28/11:30pm 4.8 1.2 3.1 89 0.7 SSE 11 13 6 7 1026.1 - -
28/11:00pm 4.9 1.0 3.4 90 0.6 SSE 13 13 7 7 1026.2 - -
28/10:30pm 4.8 1.6 3.0 88 0.7 SE 9 13 5 7 1026.1 - -
28/10:00pm 5.1 1.6 3.4 89 0.7 ESE 11 13 6 7 1026.1 - -
28/09:30pm 5.7 1.9 4.0 89 0.7 ESE 13 15 7 8 1026.2 - -
28/09:00pm 5.5 2.4 3.8 89 0.7 ESE 9 11 5 6 1026.2 1026.6 -
28/08:30pm 6.0 3.0 4.2 88 0.8 E 9 9 5 5 1026.3 - -
28/08:00pm 5.9 2.9 4.2 89 0.7 E 9 11 5 6 1025.9 - -
28/07:30pm 6.2 3.3 4.5 89 0.7 NE 9 11 5 6 1025.5 - -
28/07:00pm 6.8 3.9 4.5 85 1.0 NNE 9 11 5 6 1025.3 - -
28/06:30pm 8.2 5.5 5.7 84 1.1 NNE 9 11 5 6 1025.0 - -
28/06:00pm 9.9 7.1 5.3 73 2.1 N 9 11 5 6 1024.8 1025.1 -
28/05:30pm 10.8 6.7 4.5 65 2.9 NNE 15 17 8 9 1024.3 - -
28/05:00pm 11.7 8.2 5.6 66 2.9 N 13 19 7 10 1024.1 - -
28/04:30pm 12.2 7.8 4.7 60 3.5 N 17 20 9 11 1023.6 - -
28/04:00pm 12.6 8.0 5.8 63 3.2 N 19 22 10 12 1023.5 - -
28/03:30pm 13.1 9.2 5.3 59 3.7 N 15 22 8 12 1023.2 - -
28/03:00pm 13.5 9.4 6.4 62 3.4 N 17 24 9 13 1023.2 1023.6 -
28/02:30pm 13.9 9.8 7.7 66 3.1 N 19 24 10 13 1023.2 - -
28/02:00pm 14.5 10.6 8.5 67 3.1 N 19 26 10 14 1023.2 - -
28/01:30pm 14.4 10.0 6.5 59 3.9 N 19 26 10 14 1023.2 - -
28/01:00pm 14.5 10.8 7.8 64 3.4 N 17 20 9 11 1023.4 - -
28/12:30pm 14.8 11.3 5.6 54 4.4 NNW 13 24 7 13 1023.6 - -
28/12:00pm 15.0 12.0 5.8 54 4.4 N 11 15 6 8 1023.7 1024.0 -
28/11:30am 14.8 11.7 5.6 54 4.4 NE 11 17 6 9 1023.8 - -
28/11:00am 14.5 12.2 5.0 53 4.5 NE 6 9 3 5 1024.1 - -
28/10:30am 14.1 11.5 4.1 51 4.6 NNE 7 11 4 6 1024.3 - -
28/10:00am 13.5 11.0 4.9 56 4.0 SE 7 11 4 6 1024.3 - -
28/09:30am 12.5 9.8 3.7 55 4.0 SW 7 13 4 7 1024.2 - -
28/09:00am 11.5 7.2 3.5 58 3.6 SW 15 20 8 11 1024.2 1024.5 0.0
28/08:30am 10.5 7.4 3.5 62 3.1 WSW 9 13 5 7 1024.1 - -
28/08:00am 9.0 5.8 3.0 66 2.6 SW 9 11 5 6 1024.1 - -
28/07:30am 8.3 5.6 3.6 72 2.0 ESE 7 11 4 6 1024.1 - -
28/07:00am 6.1 1.8 1.2 71 2.0 SW 13 15 7 8 1023.6 - -
28/06:30am 5.0 1.4 0.8 74 1.7 SSW 9 17 5 9 1023.5 - -
28/06:00am 4.9 0.9 0.3 72 1.8 S 11 13 6 7 1022.8 1023.2 -
28/05:30am 4.5 -0.3 0.5 75 1.6 S 15 17 8 9 1022.6 - -
28/05:00am 4.7 1.4 0.3 73 1.7 SSW 7 9 4 5 1022.5 - -
28/04:30am 4.8 1.2 0.6 74 1.6 SSW 9 17 5 9 1022.4 - -
28/04:00am 5.5 1.2 0.7 71 1.9 S 13 17 7 9 1022.3 - -
28/03:30am 5.7 1.4 0.9 71 1.9 SW 13 19 7 10 1022.2 - -
28/03:00am 5.1 1.9 0.5 72 1.8 SSW 7 13 4 7 1022.1 1022.5 -
28/02:30am 4.7 1.1 0.7 75 1.6 S 9 13 5 7 1022.2 - -
28/02:00am 5.1 0.0 1.0 75 1.6 S 17 19 9 10 1022.3 - -
28/01:30am 4.2 0.3 0.9 79 1.3 S 11 17 6 9 1022.5 - -
28/01:00am 3.4 -1.0 0.5 81 1.1 S 13 17 7 9 1022.6 - -
28/12:30am 3.7 0.0 0.1 77 1.4 S 9 15 5 8 1022.6 - -
28/12:00am 4.4 1.2 0.7 77 1.4 WSW 7 9 4 5 1022.6 1023.0 -
 
Date/Time
EST
Temp
°C
App
Temp
°C
Dew
Point
°C
Rel
Hum
%
Delta-T
°C
Wind Press
QNH
hPa
Press
MSL
hPa
Rain since
9am
mm
Dir  Spd
km/h
Gust
km/h
Spd
kts
Gust
kts
27/11:30pm 4.9 1.7 0.5 73 1.7 SSW 7 9 4 5 1022.6 - -
27/11:00pm 4.6 1.5 0.4 74 1.6 SW 6 9 3 5 1022.6 - -
27/10:30pm 5.0 1.8 0.8 74 1.7 SW 7 9 4 5 1022.5 - -
27/10:00pm 6.6 3.6 1.1 68 2.2 W 6 7 3 4 1022.4 - -
27/09:30pm 5.3 2.1 0.5 71 1.9 NW 7 9 4 5 1022.4 - -
27/09:00pm 5.2 2.1 0.2 70 1.9 SSW 6 9 3 5 1022.2 1022.6 -

Other formats

Comma delimited format used in spreadsheet applications
http://www.bom.gov.au/fwo/IDT60801/IDT60801.94972.axf

JavaScript Object Notation format (JSON) in row-major order
http://www.bom.gov.au/fwo/IDT60801/IDT60801.94972.json

Data quality

Most of these data are generated automatically and are frequently updated. Quality checks on data are not normally performed. It is possible for incorrect values to appear. Refer to information at About Latest Weather Observations and please check the disclaimer before using these data.